AAL26 KSAN-KONT
Flight info
| Callsign | AAL26 |
|---|---|
| Flight time | 0h 25m |
| Altitude | 14000 |
| Route | TANNR HDF PETIS |
| Aircraft | B738/M-SDE2E3FGHIRWXY/LB1 |
Departure
| Time | 2026-04-26 19:52 |
|---|---|
| Airport | San Diego International Airport (KSAN) |
Arrival
| Time | 2026-04-26 20:17 |
|---|---|
| Airport | Ontario International Airport (KONT) |
| Time | Latitude | Longitude | Altitude | Speed | Heading |
|---|---|---|---|---|---|
| 2026-04-26 19:31 | 32.73338 | -117.19649 | 25 ft | 0 kts | 172° |
| 2026-04-26 19:33 | 32.73338 | -117.19650 | 25 ft | 0 kts | 172° |
| 2026-04-26 19:33 | 32.73352 | -117.19653 | 25 ft | 2 kts | 172° |
| 2026-04-26 19:33 | 32.73363 | -117.19655 | 25 ft | 1 kts | 147° |
| 2026-04-26 19:34 | 32.73370 | -117.19666 | 25 ft | 1 kts | 96° |
| 2026-04-26 19:34 | 32.73370 | -117.19682 | 25 ft | 2 kts | 97° |
| 2026-04-26 19:34 | 32.73373 | -117.19698 | 25 ft | 0 kts | 99° |
| 2026-04-26 19:34 | 32.73375 | -117.19705 | 25 ft | 0 kts | 150° |
| 2026-04-26 19:35 | 32.73381 | -117.19706 | 25 ft | 1 kts | 201° |
| 2026-04-26 19:35 | 32.73396 | -117.19701 | 25 ft | 2 kts | 179° |
| 2026-04-26 19:35 | 32.73410 | -117.19703 | 25 ft | 2 kts | 167° |
| 2026-04-26 19:35 | 32.73424 | -117.19709 | 25 ft | 2 kts | 152° |
| 2026-04-26 19:36 | 32.73435 | -117.19717 | 25 ft | 1 kts | 116° |
| 2026-04-26 19:36 | 32.73437 | -117.19727 | 25 ft | 2 kts | 97° |
| 2026-04-26 19:36 | 32.73442 | -117.19750 | 25 ft | 2 kts | 108° |
| 2026-04-26 19:36 | 32.73444 | -117.19759 | 25 ft | 0 kts | 105° |
| 2026-04-26 19:38 | 32.73441 | -117.19743 | 25 ft | 4 kts | 104° |
| 2026-04-26 19:39 | 32.73428 | -117.19689 | 25 ft | 9 kts | 104° |
| 2026-04-26 19:39 | 32.73406 | -117.19597 | 25 ft | 14 kts | 107° |
| 2026-04-26 19:39 | 32.73378 | -117.19481 | 25 ft | 12 kts | 106° |
| 2026-04-26 19:39 | 32.73357 | -117.19396 | 25 ft | 8 kts | 106° |
| 2026-04-26 19:40 | 32.73345 | -117.19346 | 25 ft | 4 kts | 107° |
| 2026-04-26 19:40 | 32.73336 | -117.19312 | 25 ft | 3 kts | 106° |
| 2026-04-26 19:40 | 32.73326 | -117.19270 | 25 ft | 8 kts | 107° |
| 2026-04-26 19:40 | 32.73304 | -117.19175 | 25 ft | 15 kts | 105° |
| 2026-04-26 19:41 | 32.73268 | -117.19031 | 25 ft | 21 kts | 108° |
| 2026-04-26 19:41 | 32.73222 | -117.18837 | 25 ft | 28 kts | 106° |
| 2026-04-26 19:41 | 32.73161 | -117.18589 | 25 ft | 32 kts | 107° |
| 2026-04-26 19:41 | 32.73120 | -117.18417 | 25 ft | 30 kts | 106° |
| 2026-04-26 19:42 | 32.73048 | -117.18127 | 25 ft | 24 kts | 108° |
| 2026-04-26 19:42 | 32.73014 | -117.17987 | 25 ft | 0 kts | 106° |
| 2026-04-26 19:42 | 32.73014 | -117.17986 | 25 ft | 0 kts | 106° |
| 2026-04-26 19:42 | 32.73012 | -117.17979 | 25 ft | 3 kts | 104° |
| 2026-04-26 19:43 | 32.72996 | -117.17903 | 25 ft | 15 kts | 105° |
| 2026-04-26 19:43 | 32.72963 | -117.17744 | 25 ft | 18 kts | 88° |
| 2026-04-26 19:43 | 32.72966 | -117.17719 | 25 ft | 0 kts | 76° |
| 2026-04-26 19:50 | 32.72980 | -117.17690 | 25 ft | 8 kts | 36° |
| 2026-04-26 19:51 | 32.73043 | -117.17699 | 25 ft | 14 kts | 302° |
| 2026-04-26 19:51 | 32.73080 | -117.17831 | 25 ft | 14 kts | 288° |
| 2026-04-26 19:51 | 32.73107 | -117.17945 | 25 ft | 17 kts | 285° |
| 2026-04-26 19:51 | 32.73140 | -117.18082 | 25 ft | 16 kts | 285° |
| 2026-04-26 19:52 | 32.73143 | -117.18095 | 25 ft | 5 kts | 286° |
| 2026-04-26 19:52 | 32.73260 | -117.18546 | 26 ft | 106 kts | 287° |
| 2026-04-26 19:52 | 32.73543 | -117.19698 | 159 ft | 175 kts | 287° |
| 2026-04-26 19:52 | 32.73870 | -117.21147 | 1024 ft | 182 kts | 284° |
| 2026-04-26 19:53 | 32.74215 | -117.22594 | 1777 ft | 191 kts | 287° |
| 2026-04-26 19:53 | 32.74836 | -117.23993 | 2693 ft | 202 kts | 307° |
| 2026-04-26 19:53 | 32.75930 | -117.25022 | 3668 ft | 207 kts | 321° |
| 2026-04-26 19:53 | 32.77083 | -117.25978 | 4651 ft | 207 kts | 321° |
| 2026-04-26 19:54 | 32.78274 | -117.26949 | 5472 ft | 220 kts | 321° |
| 2026-04-26 19:54 | 32.79614 | -117.28051 | 6175 ft | 249 kts | 321° |
| 2026-04-26 19:54 | 32.81071 | -117.29266 | 7139 ft | 268 kts | 321° |
| 2026-04-26 19:54 | 32.82614 | -117.30579 | 8201 ft | 282 kts | 321° |
| 2026-04-26 19:55 | 32.84200 | -117.31965 | 9311 ft | 293 kts | 321° |
| 2026-04-26 19:55 | 32.85820 | -117.33426 | 10449 ft | 300 kts | 321° |
| 2026-04-26 19:55 | 32.87454 | -117.34952 | 11604 ft | 306 kts | 321° |
| 2026-04-26 19:55 | 32.89088 | -117.36531 | 12761 ft | 309 kts | 321° |
| 2026-04-26 19:56 | 32.90747 | -117.38126 | 13848 ft | 314 kts | 321° |
| 2026-04-26 19:56 | 32.92503 | -117.39804 | 14006 ft | 334 kts | 321° |
| 2026-04-26 19:56 | 32.94314 | -117.41532 | 14041 ft | 334 kts | 321° |
| 2026-04-26 19:56 | 32.96114 | -117.43249 | 14035 ft | 331 kts | 321° |
| 2026-04-26 19:57 | 32.97919 | -117.44977 | 13291 ft | 343 kts | 321° |
| 2026-04-26 19:57 | 32.99766 | -117.46772 | 12233 ft | 341 kts | 321° |
| 2026-04-26 19:57 | 33.01564 | -117.48534 | 11239 ft | 337 kts | 321° |
| 2026-04-26 19:57 | 33.03365 | -117.50266 | 10245 ft | 333 kts | 321° |
| 2026-04-26 19:58 | 33.05158 | -117.51947 | 9257 ft | 329 kts | 321° |
| 2026-04-26 19:58 | 33.07008 | -117.53503 | 8248 ft | 327 kts | 329° |
| 2026-04-26 19:58 | 33.09074 | -117.54514 | 7216 ft | 326 kts | 346° |
| 2026-04-26 19:58 | 33.11276 | -117.54804 | 6242 ft | 321 kts | 1° |
| 2026-04-26 19:59 | 33.13377 | -117.54279 | 5993 ft | 291 kts | 23° |
| 2026-04-26 19:59 | 33.15029 | -117.53042 | 6011 ft | 280 kts | 45° |
| 2026-04-26 19:59 | 33.16204 | -117.51226 | 6034 ft | 282 kts | 65° |
| 2026-04-26 19:59 | 33.16804 | -117.48971 | 6039 ft | 283 kts | 86° |
| 2026-04-26 20:00 | 33.16720 | -117.46690 | 6038 ft | 274 kts | 107° |
| 2026-04-26 20:00 | 33.15991 | -117.44636 | 6041 ft | 269 kts | 128° |
| 2026-04-26 20:00 | 33.14936 | -117.42812 | 6030 ft | 271 kts | 119° |
| 2026-04-26 20:00 | 33.14439 | -117.40614 | 6053 ft | 281 kts | 98° |
| 2026-04-26 20:01 | 33.14627 | -117.38250 | 6034 ft | 286 kts | 77° |
| 2026-04-26 20:01 | 33.15602 | -117.36219 | 6017 ft | 287 kts | 45° |
| 2026-04-26 20:01 | 33.17353 | -117.35107 | 6030 ft | 287 kts | 13° |
| 2026-04-26 20:01 | 33.19313 | -117.34599 | 6055 ft | 290 kts | 11° |
| 2026-04-26 20:02 | 33.21294 | -117.34110 | 6037 ft | 291 kts | 11° |
| 2026-04-26 20:02 | 33.23268 | -117.33637 | 6041 ft | 292 kts | 12° |
| 2026-04-26 20:02 | 33.25292 | -117.32649 | 6188 ft | 341 kts | 27° |
| 2026-04-26 20:02 | 33.26751 | -117.31812 | 6287 ft | 350 kts | 27° |
| 2026-04-26 20:03 | 33.29655 | -117.30098 | 6045 ft | 348 kts | 27° |
| 2026-04-26 20:03 | 33.31813 | -117.28831 | 6033 ft | 345 kts | 27° |
| 2026-04-26 20:03 | 33.33953 | -117.27571 | 6035 ft | 342 kts | 27° |
| 2026-04-26 20:03 | 33.36076 | -117.26323 | 6035 ft | 344 kts | 27° |
| 2026-04-26 20:04 | 33.38202 | -117.25067 | 6034 ft | 343 kts | 28° |
| 2026-04-26 20:04 | 33.40355 | -117.23798 | 6037 ft | 343 kts | 27° |
| 2026-04-26 20:04 | 33.42513 | -117.22528 | 6039 ft | 345 kts | 27° |
| 2026-04-26 20:04 | 33.44646 | -117.21271 | 6035 ft | 344 kts | 27° |
| 2026-04-26 20:05 | 33.46806 | -117.19997 | 6034 ft | 345 kts | 27° |
| 2026-04-26 20:05 | 33.48951 | -117.18725 | 6030 ft | 343 kts | 26° |
| 2026-04-26 20:05 | 33.51100 | -117.17546 | 6026 ft | 340 kts | 18° |
| 2026-04-26 20:05 | 33.53336 | -117.17055 | 6022 ft | 318 kts | 6° |
| 2026-04-26 20:06 | 33.55431 | -117.16967 | 5954 ft | 283 kts | 1° |
| 2026-04-26 20:06 | 33.57305 | -117.17017 | 5917 ft | 255 kts | 359° |
| 2026-04-26 20:06 | 33.59061 | -117.17106 | 5999 ft | 258 kts | 359° |
| 2026-04-26 20:06 | 33.60894 | -117.17223 | 6017 ft | 265 kts | 358° |
| 2026-04-26 20:07 | 33.62733 | -117.17355 | 6022 ft | 266 kts | 358° |
| 2026-04-26 20:07 | 33.64563 | -117.17493 | 6020 ft | 266 kts | 358° |
| 2026-04-26 20:07 | 33.66411 | -117.17638 | 6020 ft | 265 kts | 358° |
| 2026-04-26 20:07 | 33.68257 | -117.17783 | 6020 ft | 265 kts | 358° |
| 2026-04-26 20:08 | 33.70088 | -117.17928 | 6020 ft | 265 kts | 358° |
| 2026-04-26 20:08 | 33.71929 | -117.18076 | 6020 ft | 265 kts | 358° |
| 2026-04-26 20:08 | 33.73751 | -117.18221 | 6020 ft | 265 kts | 358° |
| 2026-04-26 20:08 | 33.75591 | -117.18368 | 6020 ft | 265 kts | 358° |
| 2026-04-26 20:09 | 33.77423 | -117.18623 | 5994 ft | 267 kts | 345° |
| 2026-04-26 20:09 | 33.79114 | -117.19520 | 6035 ft | 266 kts | 335° |
| 2026-04-26 20:09 | 33.80763 | -117.20551 | 6009 ft | 266 kts | 334° |
| 2026-04-26 20:09 | 33.82382 | -117.21589 | 6012 ft | 265 kts | 334° |
| 2026-04-26 20:10 | 33.83993 | -117.22625 | 6012 ft | 264 kts | 334° |
| 2026-04-26 20:10 | 33.85607 | -117.23664 | 6010 ft | 263 kts | 334° |
| 2026-04-26 20:10 | 33.87300 | -117.24721 | 6027 ft | 282 kts | 329° |
| 2026-04-26 20:10 | 33.89021 | -117.25856 | 5974 ft | 277 kts | 329° |
| 2026-04-26 20:11 | 33.90711 | -117.26952 | 5114 ft | 279 kts | 329° |
| 2026-04-26 20:11 | 33.92379 | -117.28027 | 4492 ft | 273 kts | 332° |
| 2026-04-26 20:11 | 33.94257 | -117.28301 | 4285 ft | 280 kts | 11° |
| 2026-04-26 20:12 | 33.97464 | -117.25702 | 4356 ft | 281 kts | 41° |
| 2026-04-26 20:12 | 33.98936 | -117.24158 | 4332 ft | 279 kts | 41° |
| 2026-04-26 20:12 | 34.00539 | -117.22812 | 4278 ft | 282 kts | 18° |
| 2026-04-26 20:12 | 34.02475 | -117.22702 | 4344 ft | 282 kts | 345° |
| 2026-04-26 20:13 | 34.04134 | -117.23819 | 4308 ft | 277 kts | 311° |
| 2026-04-26 20:13 | 34.05022 | -117.25821 | 4342 ft | 271 kts | 282° |
| 2026-04-26 20:13 | 34.05497 | -117.28020 | 4346 ft | 272 kts | 281° |
| 2026-04-26 20:13 | 34.05961 | -117.30227 | 4320 ft | 271 kts | 281° |
| 2026-04-26 20:14 | 34.06421 | -117.32425 | 4329 ft | 271 kts | 281° |
| 2026-04-26 20:14 | 34.06676 | -117.34656 | 4322 ft | 268 kts | 266° |
| 2026-04-26 20:14 | 34.06374 | -117.36838 | 4309 ft | 263 kts | 249° |
| 2026-04-26 20:14 | 34.06041 | -117.39043 | 4330 ft | 266 kts | 263° |
| 2026-04-26 20:15 | 34.06007 | -117.41263 | 4322 ft | 266 kts | 266° |
| 2026-04-26 20:15 | 34.05870 | -117.43440 | 4051 ft | 256 kts | 258° |
| 2026-04-26 20:15 | 34.05458 | -117.45525 | 3552 ft | 258 kts | 255° |
| 2026-04-26 20:15 | 34.05354 | -117.47675 | 3515 ft | 254 kts | 272° |
| 2026-04-26 20:16 | 34.05442 | -117.49735 | 3249 ft | 240 kts | 267° |
| 2026-04-26 20:16 | 34.05470 | -117.51670 | 2721 ft | 226 kts | 267° |
| 2026-04-26 20:16 | 34.05470 | -117.53480 | 2266 ft | 204 kts | 266° |
| 2026-04-26 20:16 | 34.05471 | -117.55134 | 1687 ft | 193 kts | 268° |
| 2026-04-26 20:17 | 34.05486 | -117.56696 | 1243 ft | 178 kts | 268° |
| 2026-04-26 20:17 | 34.05492 | -117.58117 | 979 ft | 160 kts | 269° |
| 2026-04-26 20:17 | 34.05494 | -117.59304 | 924 ft | 92 kts | 273° |
| 2026-04-26 20:17 | 34.05496 | -117.59554 | 924 ft | 17 kts | 270° |
| 2026-04-26 20:18 | 34.05495 | -117.59722 | 923 ft | 12 kts | 269° |
| 2026-04-26 20:18 | 34.05493 | -117.59808 | 923 ft | 7 kts | 258° |
| 2026-04-26 20:18 | 34.05457 | -117.59829 | 922 ft | 5 kts | 166° |
| 2026-04-26 20:18 | 34.05426 | -117.59816 | 921 ft | 3 kts | 168° |
| 2026-04-26 20:19 | 34.05407 | -117.59817 | 920 ft | 2 kts | 199° |
| 2026-04-26 20:19 | 34.05396 | -117.59828 | 920 ft | 3 kts | 232° |
| 2026-04-26 20:19 | 34.05385 | -117.59866 | 919 ft | 5 kts | 262° |
| 2026-04-26 20:19 | 34.05383 | -117.59913 | 919 ft | 4 kts | 271° |
| 2026-04-26 20:20 | 34.05384 | -117.59973 | 919 ft | 11 kts | 270° |
| 2026-04-26 20:20 | 34.05383 | -117.60101 | 919 ft | 19 kts | 270° |
| 2026-04-26 20:20 | 34.05384 | -117.60270 | 921 ft | 18 kts | 270° |
| 2026-04-26 20:20 | 34.05384 | -117.60402 | 922 ft | 14 kts | 271° |
| 2026-04-26 20:21 | 34.05386 | -117.60510 | 923 ft | 11 kts | 269° |
| 2026-04-26 20:21 | 34.05384 | -117.60583 | 924 ft | 6 kts | 269° |
| 2026-04-26 20:21 | 34.05384 | -117.60618 | 925 ft | 3 kts | 270° |
| 2026-04-26 20:21 | 34.05384 | -117.60650 | 925 ft | 4 kts | 270° |
| 2026-04-26 20:22 | 34.05384 | -117.60692 | 926 ft | 6 kts | 271° |
| 2026-04-26 20:22 | 34.05384 | -117.60754 | 926 ft | 8 kts | 271° |
| 2026-04-26 20:22 | 34.05384 | -117.60838 | 926 ft | 11 kts | 271° |
| 2026-04-26 20:22 | 34.05385 | -117.60942 | 926 ft | 13 kts | 270° |
| 2026-04-26 20:23 | 34.05385 | -117.61065 | 927 ft | 14 kts | 269° |
| 2026-04-26 20:23 | 34.05384 | -117.61192 | 929 ft | 15 kts | 270° |
| 2026-04-26 20:23 | 34.05384 | -117.61329 | 929 ft | 17 kts | 270° |
| 2026-04-26 20:23 | 34.05385 | -117.61468 | 932 ft | 15 kts | 270° |
| 2026-04-26 20:24 | 34.05395 | -117.61590 | 933 ft | 13 kts | 307° |
| 2026-04-26 20:24 | 34.05468 | -117.61614 | 936 ft | 9 kts | 0° |
| 2026-04-26 20:24 | 34.05520 | -117.61614 | 938 ft | 6 kts | 358° |
| 2026-04-26 20:24 | 34.05594 | -117.61617 | 941 ft | 14 kts | 359° |
| 2026-04-26 20:25 | 34.05685 | -117.61617 | 944 ft | 12 kts | 0° |
| 2026-04-26 20:25 | 34.05736 | -117.61618 | 946 ft | 10 kts | 0° |
| 2026-04-26 20:25 | 34.05802 | -117.61520 | 949 ft | 16 kts | 89° |
| 2026-04-26 20:25 | 34.05800 | -117.61351 | 948 ft | 22 kts | 91° |
| 2026-04-26 20:26 | 34.05800 | -117.61173 | 945 ft | 20 kts | 91° |
| 2026-04-26 20:26 | 34.05800 | -117.61022 | 945 ft | 15 kts | 89° |
| 2026-04-26 20:26 | 34.05800 | -117.60900 | 943 ft | 13 kts | 91° |
| 2026-04-26 20:26 | 34.05801 | -117.60802 | 942 ft | 10 kts | 89° |
| 2026-04-26 20:27 | 34.05801 | -117.60729 | 942 ft | 9 kts | 91° |
| 2026-04-26 20:27 | 34.05800 | -117.60639 | 942 ft | 12 kts | 90° |
| 2026-04-26 20:27 | 34.05801 | -117.60506 | 939 ft | 17 kts | 90° |
| 2026-04-26 20:27 | 34.05801 | -117.60346 | 939 ft | 21 kts | 91° |
| 2026-04-26 20:28 | 34.05801 | -117.60154 | 936 ft | 23 kts | 90° |
| 2026-04-26 20:28 | 34.05801 | -117.59976 | 936 ft | 19 kts | 90° |
| 2026-04-26 20:28 | 34.05803 | -117.59835 | 936 ft | 14 kts | 86° |
| 2026-04-26 20:28 | 34.05801 | -117.59731 | 936 ft | 12 kts | 91° |
| 2026-04-26 20:29 | 34.05800 | -117.59641 | 936 ft | 8 kts | 91° |
| 2026-04-26 20:29 | 34.05800 | -117.59579 | 936 ft | 8 kts | 89° |
| 2026-04-26 20:29 | 34.05801 | -117.59486 | 936 ft | 12 kts | 90° |
| 2026-04-26 20:29 | 34.05801 | -117.59377 | 936 ft | 12 kts | 91° |
| 2026-04-26 20:30 | 34.05800 | -117.59276 | 936 ft | 11 kts | 90° |
| 2026-04-26 20:30 | 34.05801 | -117.59186 | 936 ft | 10 kts | 90° |
| 2026-04-26 20:30 | 34.05801 | -117.59091 | 936 ft | 12 kts | 90° |
| 2026-04-26 20:30 | 34.05818 | -117.58985 | 936 ft | 13 kts | 39° |
| 2026-04-26 20:31 | 34.05880 | -117.58959 | 939 ft | 6 kts | 40° |
| 2026-04-26 20:31 | 34.05901 | -117.58925 | 939 ft | 5 kts | 51° |
| 2026-04-26 20:31 | 34.05943 | -117.58909 | 941 ft | 8 kts | 5° |
| 2026-04-26 20:31 | 34.05976 | -117.58907 | 942 ft | 1 kts | 1° |
| 2026-04-26 20:32 | 34.05982 | -117.58907 | 943 ft | 0 kts | 360° |
| 2026-04-26 20:32 | 34.05989 | -117.58907 | 943 ft | 0 kts | 4° |
| 2026-04-26 20:32 | 34.05994 | -117.58907 | 943 ft | 1 kts | 2° |
| 2026-04-26 20:32 | 34.05997 | -117.58907 | 943 ft | 0 kts | 2° |
| 2026-04-26 20:33 | 34.05998 | -117.58907 | 943 ft | 0 kts | 1° |